createdAt,value
2022-12-08T00:03:28.329Z,100515.28
2022-12-08T00:11:04.072Z,100518.94
2022-12-08T00:18:38.475Z,100517.16
2022-12-08T00:26:13.511Z,100505.66
2022-12-08T00:33:47.338Z,100501.53
2022-12-08T00:41:44.479Z,100498.59
2022-12-08T00:49:18.875Z,100484.09
2022-12-08T00:56:54.674Z,100487.03
2022-12-08T01:04:28.618Z,100485.28
2022-12-08T01:12:03.831Z,100477.41
2022-12-08T01:19:38.933Z,100484.50
2022-12-08T01:27:16.581Z,100474.16
2022-12-08T01:34:50.320Z,100462.81
2022-12-08T01:42:26.399Z,100452.31
2022-12-08T01:50:01.582Z,100444.41
2022-12-08T01:57:43.559Z,100436.66
2022-12-08T02:05:19.411Z,100427.78
2022-12-08T02:12:56.898Z,100420.88
2022-12-08T02:20:43.082Z,100413.66
2022-12-08T02:28:45.833Z,100402.63
2022-12-08T02:36:25.367Z,100400.78
2022-12-08T02:44:06.621Z,100400.72
2022-12-08T02:51:42.057Z,100384.28
2022-12-08T02:59:34.961Z,100365.81
2022-12-08T03:07:16.126Z,100365.72
2022-12-08T03:14:55.084Z,100362.41
2022-12-08T03:22:30.545Z,100346.47
2022-12-08T03:30:05.299Z,100345.78
2022-12-08T03:37:41.690Z,100343.34
2022-12-08T03:45:15.589Z,100324.94
2022-12-08T03:52:50.923Z,100325.72
2022-12-08T04:00:25.407Z,100316.25
2022-12-08T04:08:01.288Z,100302.97
2022-12-08T04:15:35.494Z,100292.38
2022-12-08T04:23:12.270Z,100284.69
2022-12-08T04:30:46.631Z,100283.13
2022-12-08T04:38:21.889Z,100279.75
2022-12-08T04:45:55.633Z,100278.13
2022-12-08T04:53:30.757Z,100280.81
2022-12-08T05:01:04.801Z,100273.06
2022-12-08T05:08:40.233Z,100265.31
2022-12-08T05:16:15.938Z,100254.97
2022-12-08T05:23:51.292Z,100258.66
2022-12-08T05:31:26.485Z,100248.25
2022-12-08T05:39:01.744Z,100262.47
2022-12-08T05:46:35.877Z,100251.19
2022-12-08T05:54:11.292Z,100255.69
2022-12-08T06:01:46.171Z,100241.75
2022-12-08T06:09:21.930Z,100252.41
2022-12-08T06:16:55.999Z,100247.19
2022-12-08T06:24:31.435Z,100234.94
2022-12-08T06:32:05.695Z,100240.28
2022-12-08T06:39:41.102Z,100251.72
2022-12-08T06:47:15.184Z,100247.19
2022-12-08T06:54:50.513Z,100253.50
2022-12-08T07:02:25.406Z,100259.75
2022-12-08T07:10:00.735Z,100272.25
2022-12-08T07:17:34.636Z,100272.38
2022-12-08T07:25:10.614Z,100268.88
2022-12-08T07:32:44.807Z,100268.22
2022-12-08T07:40:20.262Z,100262.22
2022-12-08T07:47:54.161Z,100260.50
2022-12-08T07:55:29.438Z,100265.91
2022-12-08T08:03:04.045Z,100263.34
2022-12-08T08:10:39.349Z,100268.66
2022-12-08T08:18:13.269Z,100274.91
2022-12-08T08:25:48.775Z,100264.44
2022-12-08T08:33:23.119Z,100264.59
2022-12-08T08:40:58.193Z,100270.94
2022-12-08T08:48:33.141Z,100268.53
2022-12-08T08:56:12.285Z,100268.84
2022-12-08T09:03:48.082Z,100258.59
2022-12-08T09:11:24.366Z,100255.56
2022-12-08T09:18:58.294Z,100242.59
2022-12-08T09:26:33.613Z,100244.59
2022-12-08T09:34:07.599Z,100238.56
2022-12-08T09:41:50.056Z,100237.03
2022-12-08T09:49:28.063Z,100229.34
2022-12-08T09:57:08.700Z,100219.13
2022-12-08T10:04:43.609Z,100215.81
2022-12-08T10:12:27.283Z,100222.13
2022-12-08T10:20:07.855Z,100211.75
2022-12-08T10:27:43.272Z,100210.19
2022-12-08T10:35:18.959Z,100202.38
2022-12-08T10:42:57.414Z,100199.03
2022-12-08T10:50:34.510Z,100194.72
2022-12-08T10:58:25.041Z,100193.00
2022-12-08T11:06:08.969Z,100184.16
2022-12-08T11:13:46.011Z,100179.84
2022-12-08T11:21:21.093Z,100174.56
2022-12-08T11:28:57.325Z,100164.13
2022-12-08T11:36:36.888Z,100169.50
2022-12-08T11:44:27.050Z,100165.97
2022-12-08T11:52:05.371Z,100173.94
2022-12-08T11:59:44.463Z,100170.38
2022-12-08T12:07:50.746Z,100170.13
2022-12-08T12:15:47.485Z,100167.47
2022-12-08T12:23:25.492Z,100171.88
2022-12-08T12:31:04.277Z,100179.81
2022-12-08T12:38:58.169Z,100177.28
2022-12-08T12:46:56.991Z,100160.59
2022-12-08T12:54:31.061Z,100166.72
2022-12-08T13:02:20.681Z,100154.41
2022-12-08T13:10:01.910Z,100151.88
2022-12-08T13:17:38.814Z,100154.50
2022-12-08T13:26:01.719Z,100159.88
2022-12-08T13:33:40.847Z,100148.47
2022-12-08T13:41:19.608Z,100160.94
2022-12-08T13:57:11.973Z,100158.34
2022-12-08T14:12:46.848Z,100175.72
2022-12-08T14:20:25.609Z,100188.00
2022-12-08T14:28:02.835Z,100189.38
2022-12-08T14:35:39.890Z,100184.06
2022-12-08T14:43:19.608Z,100192.91
2022-12-08T14:51:02.897Z,100199.06
2022-12-08T14:58:36.881Z,100199.81
2022-12-08T15:06:12.238Z,100205.16
2022-12-08T15:13:48.087Z,100199.75
2022-12-08T15:21:31.746Z,100199.75
2022-12-08T15:29:12.824Z,100204.88
2022-12-08T15:36:48.524Z,100227.69
2022-12-08T15:44:23.230Z,100219.72
2022-12-08T15:59:50.425Z,100217.59
2022-12-08T16:07:28.376Z,100219.22
2022-12-08T16:15:48.635Z,100222.72
2022-12-08T16:23:13.040Z,100229.59
2022-12-08T16:30:51.886Z,100239.97
2022-12-08T16:38:27.504Z,100248.66
2022-12-08T16:46:01.585Z,100251.19
2022-12-08T16:53:36.936Z,100261.53
2022-12-08T17:01:13.382Z,100255.22
2022-12-08T17:08:48.978Z,100269.88
2022-12-08T17:16:23.366Z,100264.50
2022-12-08T17:24:00.101Z,100271.19
2022-12-08T17:31:34.362Z,100274.59
2022-12-08T17:39:13.434Z,100268.28
2022-12-08T17:46:53.219Z,100272.50
2022-12-08T17:54:29.980Z,100286.28
2022-12-08T18:02:04.601Z,100280.81
2022-12-08T18:09:40.077Z,100280.56
2022-12-08T18:17:14.353Z,100283.84
2022-12-08T18:24:50.228Z,100280.88
2022-12-08T18:32:24.355Z,100288.63
2022-12-08T18:39:59.648Z,100291.50
2022-12-08T18:47:34.276Z,100287.84
2022-12-08T18:55:11.015Z,100291.34
2022-12-08T19:02:45.258Z,100299.06
2022-12-08T19:10:20.418Z,100318.06
2022-12-08T19:17:54.570Z,100324.81
2022-12-08T19:25:29.944Z,100316.56
2022-12-08T19:33:03.773Z,100336.78
2022-12-08T19:40:59.558Z,100339.06
2022-12-08T19:48:33.706Z,100340.72
2022-12-08T19:56:09.719Z,100344.97
2022-12-08T20:03:44.944Z,100358.72
2022-12-08T20:11:21.144Z,100357.97
2022-12-08T20:18:55.645Z,100353.47
2022-12-08T20:26:33.903Z,100355.94
2022-12-08T20:34:13.582Z,100358.50
2022-12-08T20:41:49.321Z,100371.72
2022-12-08T20:49:26.329Z,100375.06
2022-12-08T20:57:05.486Z,100376.66
2022-12-08T21:04:39.523Z,100377.34
2022-12-08T21:12:14.804Z,100397.34
2022-12-08T21:19:49.090Z,100390.19
2022-12-08T21:27:24.891Z,100393.44
2022-12-08T21:34:58.760Z,100399.34
2022-12-08T21:42:46.179Z,100415.75
2022-12-08T21:50:20.639Z,100411.34
2022-12-08T21:57:57.208Z,100412.91
2022-12-08T22:05:31.209Z,100430.38
2022-12-08T22:13:06.575Z,100421.41
2022-12-08T22:20:44.102Z,100404.69
2022-12-08T22:28:19.685Z,100408.06
2022-12-08T22:35:57.483Z,100416.41
2022-12-08T22:43:32.867Z,100424.06
2022-12-08T22:51:08.094Z,100419.50
2022-12-08T22:58:44.484Z,100431.50
2022-12-08T23:06:19.174Z,100426.09
2022-12-08T23:13:56.247Z,100417.00
2022-12-08T23:21:31.109Z,100411.56
2022-12-08T23:29:06.417Z,100413.97
2022-12-08T23:36:40.368Z,100407.63
2022-12-08T23:44:15.509Z,100411.81
2022-12-08T23:51:50.387Z,100409.97
2022-12-08T23:59:25.600Z,100401.78
